Time;durP1;ratioP1;P1;durP2;ratioP2;P2;SDS_P1;SDS_P2;PMS_P1;PMS_P2;Temp;Humidity;BMP_temperature;BMP_pressure;BME280_temperature;BME280_humidity;BME280_pressure;Samples;Min_cycle;Max_cycle;Signal;HPM_P1;HPM_P2
2022/02/28 00:01:54;;;;;;;;;;;3.10;99.90;;;;;;5093328;28;19916;-51
2022/02/28 00:04:21;;;;;;;;;;;3.10;99.90;;;;;;5093067;28;20411;-45
2022/02/28 00:06:47;;;;;;;;;;;3.10;99.90;;;;;;5091532;28;20275;-46
2022/02/28 00:09:12;;;;;;;;;;;3.10;99.90;;;;;;5092853;28;20263;-47
2022/02/28 00:11:38;;;;;;;;;;;3.10;99.90;;;;;;5092757;28;19927;-49
2022/02/28 00:14:04;;;;;;;;;;;3.00;99.90;;;;;;5091922;28;19984;-49
2022/02/28 00:16:30;;;;;;;;;;;3.00;99.90;;;;;;5092936;28;19923;-47
2022/02/28 00:18:55;;;;;;;;;;;2.90;99.90;;;;;;5093356;28;19922;-48
2022/02/28 00:21:21;;;;;;;;;;;3.00;99.90;;;;;;5092873;28;19916;-48
2022/02/28 00:23:46;;;;;;;;;;;3.00;99.90;;;;;;5074474;28;19959;-46
2022/02/28 00:26:12;;;;;;;;;;;2.90;99.90;;;;;;5092230;28;19916;-48
2022/02/28 00:28:37;;;;;;;;;;;2.90;99.90;;;;;;5093043;28;19920;-47
2022/02/28 00:31:03;;;;;;;;;;;2.90;99.90;;;;;;5092754;28;19926;-50
2022/02/28 00:33:29;;;;;;;;;;;2.90;99.90;;;;;;5091284;28;20365;-49
2022/02/28 00:35:55;;;;;;;;;;;2.90;99.90;;;;;;5091382;28;19955;-48
2022/02/28 00:38:20;;;;;;;;;;;2.90;99.90;;;;;;5092666;28;19919;-50
2022/02/28 00:40:46;;;;;;;;;;;2.80;99.90;;;;;;5092730;28;19920;-48
2022/02/28 00:43:12;;;;;;;;;;;2.80;99.90;;;;;;5092571;28;19970;-47
2022/02/28 00:45:37;;;;;;;;;;;2.80;99.90;;;;;;5092200;28;20365;-46
2022/02/28 00:48:03;;;;;;;;;;;2.80;99.90;;;;;;5092377;28;19916;-48
2022/02/28 00:50:29;;;;;;;;;;;2.80;99.90;;;;;;5092274;28;19931;-49
2022/02/28 00:52:54;;;;;;;;;;;2.70;99.90;;;;;;5092305;28;19970;-46
2022/02/28 00:55:20;;;;;;;;;;;2.70;99.90;;;;;;5092433;28;19938;-50
2022/02/28 00:57:46;;;;;;;;;;;2.60;99.90;;;;;;5092258;28;19922;-47
2022/02/28 01:00:13;;;;;;;;;;;2.60;99.90;;;;;;5092741;28;19923;-50
2022/02/28 01:02:39;;;;;;;;;;;2.60;99.90;;;;;;5092384;28;20011;-50
2022/02/28 01:05:05;;;;;;;;;;;2.60;99.90;;;;;;5092283;28;20282;-46
2022/02/28 01:07:30;;;;;;;;;;;2.60;99.90;;;;;;5092122;28;19930;-47
2022/02/28 01:09:56;;;;;;;;;;;2.60;99.90;;;;;;5092537;28;19919;-50
2022/02/28 01:12:21;;;;;;;;;;;2.50;99.90;;;;;;5092316;28;20014;-44
2022/02/28 01:14:48;;;;;;;;;;;2.50;99.90;;;;;;5092099;28;19972;-45
2022/02/28 01:17:14;;;;;;;;;;;2.50;99.90;;;;;;5092004;28;19923;-49
2022/02/28 01:19:41;;;;;;;;;;;2.40;99.90;;;;;;5092335;28;19916;-48
2022/02/28 01:22:09;;;;;;;;;;;2.40;99.90;;;;;;5092378;28;19919;-49
2022/02/28 01:24:38;;;;;;;;;;;2.40;99.90;;;;;;5092189;28;19923;-46
2022/02/28 01:27:04;;;;;;;;;;;2.30;99.90;;;;;;5091280;28;20360;-48
2022/02/28 01:29:30;;;;;;;;;;;2.30;99.90;;;;;;5092205;28;19920;-47
2022/02/28 01:31:55;;;;;;;;;;;2.30;99.90;;;;;;5091857;28;19920;-47
2022/02/28 01:34:21;;;;;;;;;;;2.30;99.90;;;;;;5091929;28;19923;-45
2022/02/28 01:36:47;;;;;;;;;;;2.30;99.90;;;;;;5093049;28;19920;-47
2022/02/28 01:39:12;;;;;;;;;;;2.30;99.90;;;;;;5095782;28;19920;-45
2022/02/28 01:41:38;;;;;;;;;;;2.30;99.90;;;;;;5095717;28;20392;-47
2022/02/28 01:44:04;;;;;;;;;;;2.30;99.90;;;;;;5095963;28;19916;-49
2022/02/28 01:46:30;;;;;;;;;;;2.30;99.90;;;;;;5095877;28;20330;-46
2022/02/28 01:48:55;;;;;;;;;;;2.30;99.90;;;;;;5094417;28;19966;-48
2022/02/28 01:51:21;;;;;;;;;;;2.30;99.90;;;;;;5095615;28;19928;-45
2022/02/28 01:53:47;;;;;;;;;;;2.20;99.90;;;;;;5095627;28;19943;-45
2022/02/28 01:56:13;;;;;;;;;;;2.20;99.90;;;;;;5096048;28;19924;-56
2022/02/28 01:58:39;;;;;;;;;;;2.20;99.90;;;;;;5096814;28;19915;-57
2022/02/28 02:01:05;;;;;;;;;;;2.20;99.90;;;;;;5096587;28;20313;-57
2022/02/28 02:03:31;;;;;;;;;;;2.20;99.90;;;;;;5096216;28;19916;-56
2022/02/28 02:05:57;;;;;;;;;;;2.10;99.90;;;;;;5096769;28;19920;-57
2022/02/28 02:08:22;;;;;;;;;;;2.10;99.90;;;;;;5096440;28;20289;-57
2022/02/28 02:10:48;;;;;;;;;;;2.00;99.90;;;;;;5096276;28;19926;-57
2022/02/28 02:13:14;;;;;;;;;;;2.00;99.90;;;;;;5096103;28;20412;-57
2022/02/28 02:15:40;;;;;;;;;;;2.00;99.90;;;;;;5096345;28;19920;-56
2022/02/28 02:18:05;;;;;;;;;;;2.00;99.90;;;;;;5096278;28;19916;-57
2022/02/28 02:20:32;;;;;;;;;;;1.90;99.90;;;;;;5096665;28;19916;-57
2022/02/28 02:22:59;;;;;;;;;;;1.80;99.90;;;;;;5096381;28;19916;-57
2022/02/28 02:25:24;;;;;;;;;;;1.80;99.90;;;;;;5096381;28;19916;-57
2022/02/28 02:27:50;;;;;;;;;;;1.80;99.90;;;;;;5096113;28;20023;-57
2022/02/28 02:30:17;;;;;;;;;;;1.80;99.90;;;;;;5095927;28;19942;-57
2022/02/28 02:32:43;;;;;;;;;;;1.70;99.90;;;;;;5096239;28;19923;-57
2022/02/28 02:35:09;;;;;;;;;;;1.70;99.90;;;;;;5096457;28;19915;-57
2022/02/28 02:37:34;;;;;;;;;;;1.70;99.90;;;;;;5096093;28;20007;-57
2022/02/28 02:40:01;;;;;;;;;;;1.70;99.90;;;;;;5095906;28;20285;-58
2022/02/28 02:42:27;;;;;;;;;;;1.60;99.90;;;;;;5095975;28;19920;-58
2022/02/28 02:44:52;;;;;;;;;;;1.60;99.90;;;;;;5094448;28;19923;-58
2022/02/28 02:47:18;;;;;;;;;;;1.60;99.90;;;;;;5095774;28;20380;-58
2022/02/28 02:49:43;;;;;;;;;;;1.60;99.90;;;;;;5095403;28;19923;-58
2022/02/28 02:52:09;;;;;;;;;;;1.50;99.90;;;;;;5095660;28;19979;-58
2022/02/28 02:54:34;;;;;;;;;;;1.50;99.90;;;;;;5095859;28;20305;-58
2022/02/28 02:57:00;;;;;;;;;;;1.50;99.90;;;;;;5095576;28;20318;-58
2022/02/28 02:59:25;;;;;;;;;;;1.50;99.90;;;;;;5095378;28;20015;-58
2022/02/28 03:01:51;;;;;;;;;;;1.50;99.90;;;;;;5095433;28;19916;-58
2022/02/28 03:04:16;;;;;;;;;;;1.40;99.90;;;;;;5095342;28;19959;-58
2022/02/28 03:06:42;;;;;;;;;;;1.40;99.90;;;;;;5095534;28;19961;-58
2022/02/28 03:09:11;;;;;;;;;;;1.40;99.90;;;;;;5095238;28;19920;-58
2022/02/28 03:11:37;;;;;;;;;;;1.40;99.90;;;;;;5094906;28;19924;-58
2022/02/28 03:14:03;;;;;;;;;;;1.40;99.90;;;;;;5095292;28;19961;-58
2022/02/28 03:16:28;;;;;;;;;;;1.40;99.90;;;;;;5095351;28;19916;-58
2022/02/28 03:18:54;;;;;;;;;;;1.40;99.90;;;;;;5095642;28;20059;-58
2022/02/28 03:21:19;;;;;;;;;;;1.30;99.90;;;;;;5094982;28;19923;-58
2022/02/28 03:23:45;;;;;;;;;;;1.30;99.90;;;;;;5095013;28;19939;-58
2022/02/28 03:26:10;;;;;;;;;;;1.30;99.90;;;;;;5094795;28;19923;-58
2022/02/28 03:28:36;;;;;;;;;;;1.30;99.90;;;;;;5095206;28;19955;-58
2022/02/28 03:31:02;;;;;;;;;;;1.30;99.90;;;;;;5094984;28;19920;-58
2022/02/28 03:33:27;;;;;;;;;;;1.30;99.90;;;;;;5094698;28;19920;-58
2022/02/28 03:35:53;;;;;;;;;;;1.20;99.90;;;;;;5094700;28;19926;-58
2022/02/28 03:38:19;;;;;;;;;;;1.30;99.90;;;;;;5093420;28;19923;-58
2022/02/28 03:40:45;;;;;;;;;;;1.30;99.90;;;;;;5094372;28;19920;-58
2022/02/28 03:43:11;;;;;;;;;;;1.30;99.90;;;;;;5094780;28;19915;-58
2022/02/28 03:45:36;;;;;;;;;;;1.30;99.90;;;;;;5093276;28;19916;-58
2022/02/28 03:48:02;;;;;;;;;;;1.30;99.90;;;;;;5094814;28;19922;-58
2022/02/28 03:50:28;;;;;;;;;;;1.20;99.90;;;;;;5094743;28;19923;-58
2022/02/28 03:52:53;;;;;;;;;;;1.30;99.90;;;;;;5094342;28;20374;-58
2022/02/28 03:55:20;;;;;;;;;;;1.20;99.90;;;;;;5094478;28;19923;-58
2022/02/28 03:57:46;;;;;;;;;;;1.20;99.90;;;;;;5094260;28;20281;-58
2022/02/28 04:00:12;;;;;;;;;;;1.20;99.90;;;;;;5092912;28;19916;-59
2022/02/28 04:02:37;;;;;;;;;;;1.20;99.90;;;;;;5094062;28;19919;-58
2022/02/28 04:05:03;;;;;;;;;;;1.20;99.90;;;;;;5094409;28;19958;-58
2022/02/28 04:07:29;;;;;;;;;;;1.20;99.90;;;;;;5094392;28;20289;-58
2022/02/28 04:09:54;;;;;;;;;;;1.10;99.90;;;;;;5092997;28;19920;-58
2022/02/28 04:12:20;;;;;;;;;;;1.10;99.90;;;;;;5094140;28;20013;-58
2022/02/28 04:14:46;;;;;;;;;;;1.10;99.90;;;;;;5092543;28;19958;-58
2022/02/28 04:17:12;;;;;;;;;;;1.10;99.90;;;;;;5094147;28;19920;-58
2022/02/28 04:19:37;;;;;;;;;;;1.10;99.90;;;;;;5094223;28;19950;-58
2022/02/28 04:22:03;;;;;;;;;;;1.00;99.90;;;;;;5094013;28;20300;-58
2022/02/28 04:24:29;;;;;;;;;;;1.00;99.90;;;;;;5093576;28;19920;-58
2022/02/28 04:26:54;;;;;;;;;;;1.00;99.90;;;;;;5092631;28;20381;-58
2022/02/28 04:29:20;;;;;;;;;;;1.00;99.90;;;;;;5093707;28;19916;-58
2022/02/28 04:31:45;;;;;;;;;;;1.00;99.90;;;;;;5093942;28;19974;-58
2022/02/28 04:34:11;;;;;;;;;;;1.00;99.90;;;;;;5093690;28;20311;-58
2022/02/28 04:36:37;;;;;;;;;;;0.90;99.90;;;;;;5092554;28;19968;-58
2022/02/28 04:39:02;;;;;;;;;;;0.90;99.90;;;;;;5093348;28;19941;-58
2022/02/28 04:41:28;;;;;;;;;;;0.90;99.90;;;;;;5093287;28;19998;-58
2022/02/28 04:43:53;;;;;;;;;;;0.80;99.90;;;;;;5093733;28;19916;-58
2022/02/28 04:46:19;;;;;;;;;;;0.80;99.90;;;;;;5093451;28;19916;-58
2022/02/28 04:48:45;;;;;;;;;;;0.80;99.90;;;;;;5093366;28;20374;-58
2022/02/28 04:51:10;;;;;;;;;;;0.70;99.90;;;;;;5093359;28;19920;-58
2022/02/28 04:53:36;;;;;;;;;;;0.80;99.90;;;;;;5094016;28;19916;-58
2022/02/28 04:56:01;;;;;;;;;;;0.80;99.90;;;;;;5093234;28;19939;-58
2022/02/28 04:58:27;;;;;;;;;;;0.70;99.90;;;;;;5093314;28;20381;-58
2022/02/28 05:00:52;;;;;;;;;;;0.70;99.90;;;;;;5093102;28;20406;-58
2022/02/28 05:03:18;;;;;;;;;;;0.80;99.90;;;;;;5091831;28;19916;-58
2022/02/28 05:05:43;;;;;;;;;;;0.70;99.90;;;;;;5093125;28;19916;-58
2022/02/28 05:08:09;;;;;;;;;;;0.70;99.90;;;;;;5093379;28;19961;-58
2022/02/28 05:10:34;;;;;;;;;;;0.70;99.90;;;;;;5093272;28;19920;-58
2022/02/28 05:13:01;;;;;;;;;;;0.70;99.90;;;;;;5096334;28;20003;-58
2022/02/28 05:15:26;;;;;;;;;;;0.70;99.90;;;;;;5097693;28;20263;-58
2022/02/28 05:17:52;;;;;;;;;;;0.60;99.90;;;;;;5097429;28;19923;-58
2022/02/28 05:20:18;;;;;;;;;;;0.60;99.90;;;;;;5097246;28;19923;-58
2022/02/28 05:22:44;;;;;;;;;;;0.60;99.90;;;;;;5097020;28;20365;-58
2022/02/28 05:25:09;;;;;;;;;;;0.60;99.90;;;;;;5097057;28;19955;-58
2022/02/28 05:27:39;;;;;;;;;;;0.60;99.90;;;;;;5096943;28;19916;-58
2022/02/28 05:30:05;;;;;;;;;;;0.50;99.90;;;;;;5097110;28;19916;-58
2022/02/28 05:32:31;;;;;;;;;;;0.50;99.90;;;;;;5096507;28;19919;-58
2022/02/28 05:34:56;;;;;;;;;;;0.50;99.90;;;;;;5096925;28;19942;-58
2022/02/28 05:37:22;;;;;;;;;;;0.50;99.90;;;;;;5096725;28;19916;-57
2022/02/28 05:39:47;;;;;;;;;;;0.50;99.90;;;;;;5096457;28;19927;-57
2022/02/28 05:42:13;;;;;;;;;;;0.50;99.90;;;;;;5096609;28;19920;-58
2022/02/28 05:44:38;;;;;;;;;;;0.50;99.90;;;;;;5096864;28;20284;-58
2022/02/28 05:47:04;;;;;;;;;;;0.50;99.90;;;;;;5096699;28;19916;-58
2022/02/28 05:49:30;;;;;;;;;;;0.50;99.90;;;;;;5096734;28;20358;-58
2022/02/28 05:51:55;;;;;;;;;;;0.50;99.90;;;;;;5096434;28;20385;-58
2022/02/28 05:54:21;;;;;;;;;;;0.50;99.90;;;;;;5096727;28;19961;-58
2022/02/28 05:56:46;;;;;;;;;;;0.50;99.90;;;;;;5096290;28;20146;-58
2022/02/28 05:59:12;;;;;;;;;;;0.50;99.90;;;;;;5096257;28;19958;-58
2022/02/28 06:01:37;;;;;;;;;;;0.50;99.90;;;;;;5096390;28;19927;-58
2022/02/28 06:04:03;;;;;;;;;;;0.50;99.90;;;;;;5096317;28;20274;-58
2022/02/28 06:06:29;;;;;;;;;;;0.50;99.90;;;;;;5096156;28;19924;-58
2022/02/28 06:08:55;;;;;;;;;;;0.50;99.90;;;;;;5096062;28;19916;-58
2022/02/28 06:11:21;;;;;;;;;;;0.50;99.90;;;;;;5096226;28;19927;-58
2022/02/28 06:13:46;;;;;;;;;;;0.50;99.90;;;;;;5096004;28;20389;-58
2022/02/28 06:16:12;;;;;;;;;;;0.60;99.90;;;;;;5095964;28;20297;-58
2022/02/28 06:18:37;;;;;;;;;;;0.60;99.90;;;;;;5096128;28;19920;-58
2022/02/28 06:21:04;;;;;;;;;;;0.50;99.90;;;;;;5095660;28;20405;-58
2022/02/28 06:23:30;;;;;;;;;;;0.50;99.90;;;;;;5094861;28;20075;-58
2022/02/28 06:25:55;;;;;;;;;;;0.50;99.90;;;;;;5095879;28;20259;-58
2022/02/28 06:28:21;;;;;;;;;;;0.60;99.90;;;;;;5095465;28;19916;-58
2022/02/28 06:30:47;;;;;;;;;;;0.60;99.90;;;;;;5095734;28;20018;-58
2022/02/28 06:33:13;;;;;;;;;;;0.60;99.90;;;;;;5095753;28;19916;-58
2022/02/28 06:35:39;;;;;;;;;;;0.70;99.90;;;;;;5095717;28;20434;-58
2022/02/28 06:38:05;;;;;;;;;;;0.70;99.90;;;;;;5095842;28;19915;-58
2022/02/28 06:40:32;;;;;;;;;;;0.70;99.90;;;;;;5095312;28;19920;-57
2022/02/28 06:42:57;;;;;;;;;;;0.70;99.90;;;;;;5094324;28;19966;-58
2022/02/28 06:45:24;;;;;;;;;;;0.80;99.90;;;;;;5095902;28;19916;-58
2022/02/28 06:47:53;;;;;;;;;;;0.80;99.90;;;;;;5094263;28;19923;-58
2022/02/28 06:50:18;;;;;;;;;;;0.80;99.90;;;;;;5095762;28;19939;-58
2022/02/28 06:52:44;;;;;;;;;;;0.90;99.90;;;;;;5095548;28;20382;-58
2022/02/28 06:55:09;;;;;;;;;;;1.00;99.90;;;;;;5095459;28;20328;-58
2022/02/28 06:57:35;;;;;;;;;;;1.00;99.90;;;;;;5095502;28;19916;-58
2022/02/28 07:00:00;;;;;;;;;;;1.10;99.90;;;;;;5095676;28;19916;-58
2022/02/28 07:02:26;;;;;;;;;;;1.10;99.90;;;;;;5095441;28;19948;-58
2022/02/28 07:04:52;;;;;;;;;;;1.30;99.90;;;;;;5095354;28;20366;-58
2022/02/28 07:07:18;;;;;;;;;;;1.30;99.90;;;;;;5095240;28;19920;-58
2022/02/28 07:09:45;;;;;;;;;;;1.50;99.90;;;;;;5094848;28;19920;-58
2022/02/28 07:12:11;;;;;;;;;;;1.60;99.90;;;;;;5094665;28;19924;-58
2022/02/28 07:14:37;;;;;;;;;;;1.60;99.90;;;;;;5094162;28;20424;-58
2022/02/28 07:17:02;;;;;;;;;;;1.70;99.90;;;;;;5094751;28;19916;-59
2022/02/28 07:19:28;;;;;;;;;;;1.80;99.90;;;;;;5090630;28;20270;-58
2022/02/28 07:21:54;;;;;;;;;;;1.90;99.90;;;;;;5094062;28;20361;-58
2022/02/28 07:24:20;;;;;;;;;;;2.10;99.90;;;;;;5094198;28;19965;-50
2022/02/28 07:26:45;;;;;;;;;;;2.10;99.90;;;;;;5093907;28;19919;-50
2022/02/28 07:29:11;;;;;;;;;;;2.10;99.90;;;;;;5093632;28;20374;-46
2022/02/28 07:31:37;;;;;;;;;;;2.20;99.90;;;;;;5093524;28;19931;-50
2022/02/28 07:34:02;;;;;;;;;;;2.40;99.90;;;;;;5093542;28;19959;-48
2022/02/28 07:36:28;;;;;;;;;;;2.50;99.90;;;;;;5093365;28;19923;-50
2022/02/28 07:38:54;;;;;;;;;;;2.60;99.90;;;;;;5092395;28;19915;-48
2022/02/28 07:41:19;;;;;;;;;;;2.90;99.90;;;;;;5093029;28;19920;-50
2022/02/28 07:43:45;;;;;;;;;;;3.10;99.90;;;;;;5091760;28;19980;-48
2022/02/28 07:46:10;;;;;;;;;;;3.30;99.90;;;;;;5093255;28;20004;-50
2022/02/28 07:48:36;;;;;;;;;;;3.60;99.90;;;;;;5093345;28;20406;-51
2022/02/28 07:51:01;;;;;;;;;;;4.00;99.90;;;;;;5093528;28;20504;-52
2022/02/28 07:53:27;;;;;;;;;;;4.10;99.90;;;;;;5093840;28;19959;-58
2022/02/28 07:55:53;;;;;;;;;;;4.50;99.90;;;;;;5094348;28;20275;-58
2022/02/28 07:58:18;;;;;;;;;;;4.70;99.90;;;;;;5094368;28;19968;-59
2022/02/28 08:00:44;;;;;;;;;;;5.00;99.90;;;;;;5092969;28;19916;-59
2022/02/28 08:03:09;;;;;;;;;;;5.50;99.90;;;;;;5094067;28;19923;-59
2022/02/28 08:05:35;;;;;;;;;;;5.60;99.90;;;;;;5094520;28;19916;-59
2022/02/28 08:08:00;;;;;;;;;;;5.90;99.90;;;;;;5093980;28;19916;-59
2022/02/28 08:10:26;;;;;;;;;;;6.30;99.90;;;;;;5094322;28;19916;-59
2022/02/28 08:12:51;;;;;;;;;;;6.40;99.90;;;;;;5094455;28;19915;-59
2022/02/28 08:15:17;;;;;;;;;;;6.70;99.90;;;;;;5094123;28;19920;-59
2022/02/28 08:17:43;;;;;;;;;;;7.10;99.90;;;;;;5094051;28;19959;-59
2022/02/28 08:20:09;;;;;;;;;;;7.10;99.90;;;;;;5092586;28;19919;-59
2022/02/28 08:22:35;;;;;;;;;;;7.40;99.90;;;;;;5093705;28;20393;-59
2022/02/28 08:25:00;;;;;;;;;;;7.70;99.90;;;;;;5092998;28;20002;-59
2022/02/28 08:27:26;;;;;;;;;;;7.60;99.90;;;;;;5093940;28;19942;-59
2022/02/28 08:29:52;;;;;;;;;;;7.60;99.90;;;;;;5093979;28;20003;-59
2022/02/28 08:32:17;;;;;;;;;;;7.80;99.90;;;;;;5093924;28;19975;-60
2022/02/28 08:34:43;;;;;;;;;;;7.70;99.90;;;;;;5094249;28;19978;-59
2022/02/28 08:37:09;;;;;;;;;;;8.00;99.90;;;;;;5093718;28;20349;-59
2022/02/28 08:39:34;;;;;;;;;;;8.10;99.90;;;;;;5093612;28;20319;-59
2022/02/28 08:42:00;;;;;;;;;;;7.90;99.90;;;;;;5093549;28;20015;-59
2022/02/28 08:44:25;;;;;;;;;;;8.20;99.90;;;;;;5094026;28;19916;-59
2022/02/28 08:46:51;;;;;;;;;;;8.60;99.90;;;;;;5093370;28;19951;-59
2022/02/28 08:49:25;;;;;;;;;;;8.50;99.90;;;;;;5093777;28;19920;-60
2022/02/28 08:51:56;;;;;;;;;;;8.60;99.90;;;;;;5074774;28;19920;-54
2022/02/28 08:54:23;;;;;;;;;;;8.60;99.90;;;;;;5074723;28;19952;-61
2022/02/28 08:56:49;;;;;;;;;;;8.70;99.90;;;;;;5074970;28;19927;-52
2022/02/28 08:59:15;;;;;;;;;;;9.00;99.90;;;;;;5057273;28;19916;-53
2022/02/28 09:01:44;;;;;;;;;;;9.00;99.90;;;;;;5091267;28;20294;-52
2022/02/28 09:04:12;;;;;;;;;;;9.40;99.90;;;;;;5074797;28;20358;-54
2022/02/28 09:06:38;;;;;;;;;;;9.70;99.90;;;;;;5092570;28;19927;-61
2022/02/28 09:09:07;;;;;;;;;;;9.80;99.90;;;;;;5091710;28;19920;-54
2022/02/28 09:11:33;;;;;;;;;;;9.80;99.90;;;;;;5075161;28;19924;-53
2022/02/28 09:13:59;;;;;;;;;;;9.60;99.90;;;;;;5092882;28;20012;-55
2022/02/28 09:16:25;;;;;;;;;;;10.20;99.90;;;;;;5093201;28;19920;-61
2022/02/28 09:19:00;;;;;;;;;;;10.00;99.90;;;;;;5074610;28;19916;-61
2022/02/28 09:21:29;;;;;;;;;;;9.80;99.90;;;;;;5074222;28;19916;-50
2022/02/28 09:23:55;;;;;;;;;;;9.90;99.90;;;;;;5092088;28;19916;-50
2022/02/28 09:26:21;;;;;;;;;;;9.90;99.90;;;;;;5092035;28;19916;-49
2022/02/28 09:28:46;;;;;;;;;;;9.90;99.90;;;;;;5091751;28;19916;-51
2022/02/28 09:31:12;;;;;;;;;;;9.90;99.90;;;;;;5091826;28;19920;-49
2022/02/28 09:33:38;;;;;;;;;;;9.70;99.90;;;;;;5091843;28;19939;-52
2022/02/28 09:36:04;;;;;;;;;;;9.40;99.90;;;;;;5092122;28;20001;-47
2022/02/28 09:38:30;;;;;;;;;;;9.40;99.90;;;;;;5091993;28;20308;-50
2022/02/28 09:40:56;;;;;;;;;;;9.40;99.90;;;;;;5091878;28;19924;-48
2022/02/28 09:43:22;;;;;;;;;;;9.10;99.90;;;;;;5092111;28;20028;-49
2022/02/28 09:45:48;;;;;;;;;;;9.40;99.90;;;;;;5091871;28;19995;-51
2022/02/28 09:48:14;;;;;;;;;;;9.20;99.90;;;;;;5092368;28;19916;-51
2022/02/28 09:50:41;;;;;;;;;;;9.00;99.90;;;;;;5091819;28;19922;-48
2022/02/28 09:53:06;;;;;;;;;;;9.20;99.90;;;;;;5091695;28;19916;-52
2022/02/28 09:55:32;;;;;;;;;;;8.60;99.90;;;;;;5091556;28;19916;-49
2022/02/28 09:57:59;;;;;;;;;;;8.60;99.90;;;;;;5091788;28;19923;-50
2022/02/28 10:00:25;;;;;;;;;;;9.10;99.90;;;;;;5095073;28;19976;-49
2022/02/28 10:02:53;;;;;;;;;;;8.80;99.90;;;;;;5095134;28;19955;-48
2022/02/28 10:05:19;;;;;;;;;;;8.80;99.90;;;;;;5095297;28;19916;-50
2022/02/28 10:07:52;;;;;;;;;;;8.70;99.90;;;;;;5095363;28;20293;-50
2022/02/28 10:10:18;;;;;;;;;;;8.70;99.90;;;;;;5095134;28;19923;-49
2022/02/28 10:12:44;;;;;;;;;;;8.70;99.90;;;;;;5094913;28;20358;-52
2022/02/28 10:15:12;;;;;;;;;;;8.70;99.90;;;;;;5094877;28;19916;-50
2022/02/28 10:17:44;;;;;;;;;;;8.70;99.90;;;;;;5095602;28;19916;-50
2022/02/28 10:20:18;;;;;;;;;;;8.70;99.90;;;;;;5093237;28;19923;-50
2022/02/28 10:22:43;;;;;;;;;;;9.00;99.90;;;;;;5094968;28;19916;-51
2022/02/28 10:25:09;;;;;;;;;;;9.00;99.90;;;;;;5094897;28;19923;-52
2022/02/28 10:27:35;;;;;;;;;;;9.20;99.90;;;;;;5094655;28;19923;-48
2022/02/28 10:30:00;;;;;;;;;;;9.40;99.90;;;;;;5094895;28;19923;-47
2022/02/28 10:32:27;;;;;;;;;;;9.40;99.90;;;;;;5094709;28;20006;-51
2022/02/28 10:37:44;;;;;;;;;;;9.40;99.90;;;;;;5094490;28;20362;-48
2022/02/28 10:40:10;;;;;;;;;;;9.70;99.90;;;;;;5094241;28;19971;-50
2022/02/28 10:42:50;;;;;;;;;;;9.80;99.90;;;;;;5094553;28;20358;-48
2022/02/28 10:45:17;;;;;;;;;;;10.00;99.90;;;;;;5094570;28;20358;-49
2022/02/28 10:47:46;;;;;;;;;;;10.20;99.90;;;;;;5094281;28;19916;-52
2022/02/28 10:50:12;;;;;;;;;;;10.50;99.90;;;;;;5094499;28;19915;-48
2022/02/28 10:52:53;;;;;;;;;;;10.40;99.90;;;;;;5094171;28;19920;-51
2022/02/28 10:55:29;;;;;;;;;;;10.60;99.90;;;;;;5094433;28;19920;-50
2022/02/28 10:58:14;;;;;;;;;;;10.30;99.90;;;;;;5094508;28;19916;-51
2022/02/28 11:00:53;;;;;;;;;;;10.50;99.70;;;;;;5094111;28;19951;-46
2022/02/28 11:03:19;;;;;;;;;;;10.70;99.90;;;;;;5094266;28;20311;-47
2022/02/28 11:05:49;;;;;;;;;;;10.90;99.90;;;;;;5092801;28;20280;-48
2022/02/28 11:08:18;;;;;;;;;;;10.70;98.60;;;;;;5094054;28;19916;-52
2022/02/28 11:10:44;;;;;;;;;;;10.90;99.20;;;;;;5093234;28;20387;-50
2022/02/28 11:13:09;;;;;;;;;;;10.90;99.70;;;;;;5093929;28;19916;-51
2022/02/28 11:15:35;;;;;;;;;;;10.70;98.50;;;;;;5094022;28;20369;-53
2022/02/28 11:18:00;;;;;;;;;;;10.60;97.70;;;;;;5093916;28;20362;-50
2022/02/28 11:20:27;;;;;;;;;;;10.90;98.40;;;;;;5093966;28;19916;-51
2022/02/28 11:22:52;;;;;;;;;;;11.10;98.50;;;;;;5093584;28;19976;-51
2022/02/28 11:25:19;;;;;;;;;;;11.10;98.20;;;;;;5093712;28;19919;-51
2022/02/28 11:27:46;;;;;;;;;;;11.20;98.60;;;;;;5093479;28;19916;-50
2022/02/28 11:30:21;;;;;;;;;;;11.10;97.60;;;;;;5093499;28;19916;-52
2022/02/28 11:32:57;;;;;;;;;;;11.20;97.40;;;;;;5093507;28;19920;-50
2022/02/28 11:35:39;;;;;;;;;;;11.40;98.70;;;;;;5093819;28;19950;-54
2022/02/28 11:38:10;;;;;;;;;;;11.50;97.80;;;;;;5093278;28;19976;-48
2022/02/28 11:40:35;;;;;;;;;;;11.60;96.60;;;;;;5093241;28;19919;-50
2022/02/28 11:43:14;;;;;;;;;;;11.40;95.90;;;;;;5093516;28;20270;-48
2022/02/28 11:45:50;;;;;;;;;;;11.40;95.10;;;;;;5093284;28;19916;-50
2022/02/28 11:48:25;;;;;;;;;;;11.40;95.80;;;;;;5093412;28;19920;-51
2022/02/28 11:50:54;;;;;;;;;;;11.40;95.20;;;;;;5093101;28;20381;-47
2022/02/28 11:53:41;;;;;;;;;;;11.70;95.00;;;;;;5093233;28;19920;-50
2022/02/28 11:56:16;;;;;;;;;;;11.90;95.30;;;;;;5091790;28;19922;-51
2022/02/28 11:58:50;;;;;;;;;;;11.80;94.50;;;;;;5092925;28;19920;-50
2022/02/28 12:01:17;;;;;;;;;;;11.90;93.70;;;;;;5093059;28;19946;-50
2022/02/28 12:03:49;;;;;;;;;;;11.80;93.60;;;;;;5092986;28;19923;-48
2022/02/28 12:06:33;;;;;;;;;;;11.90;94.40;;;;;;5093199;28;19916;-51
2022/02/28 12:08:58;;;;;;;;;;;12.20;96.20;;;;;;5093177;28;20006;-52
2022/02/28 12:11:28;;;;;;;;;;;12.50;96.80;;;;;;5092698;28;20011;-50
2022/02/28 12:14:02;;;;;;;;;;;12.40;94.80;;;;;;5092828;28;20437;-52
2022/02/28 12:19:27;;;;;;;;;;;12.50;95.00;;;;;;5092822;28;19916;-50
2022/02/28 12:22:00;;;;;;;;;;;12.90;95.70;;;;;;5091906;28;19961;-50
2022/02/28 12:24:43;;;;;;;;;;;13.00;95.70;;;;;;5092443;28;19966;-49
2022/02/28 12:27:15;;;;;;;;;;;12.90;94.60;;;;;;5093103;28;19915;-52
2022/02/28 12:29:41;;;;;;;;;;;13.00;93.60;;;;;;5092595;28;19923;-47
2022/02/28 12:32:06;;;;;;;;;;;12.90;95.10;;;;;;5092514;28;20270;-50
2022/02/28 12:34:32;;;;;;;;;;;13.20;95.70;;;;;;5092606;28;19920;-50
2022/02/28 12:36:58;;;;;;;;;;;13.40;95.60;;;;;;5092692;28;20015;-49
2022/02/28 12:39:23;;;;;;;;;;;13.30;94.00;;;;;;5092220;28;20362;-49
2022/02/28 12:41:55;;;;;;;;;;;13.30;92.60;;;;;;5092342;28;19920;-50
2022/02/28 12:44:21;;;;;;;;;;;13.20;93.80;;;;;;5091259;28;20374;-51
2022/02/28 12:46:52;;;;;;;;;;;13.00;93.10;;;;;;5092698;28;19970;-49
2022/02/28 12:49:19;;;;;;;;;;;13.00;93.30;;;;;;5092444;28;19920;-48
2022/02/28 12:51:47;;;;;;;;;;;12.90;91.90;;;;;;5092451;28;19950;-50
2022/02/28 12:54:15;;;;;;;;;;;13.00;93.80;;;;;;5092460;28;19916;-50
2022/02/28 12:56:42;;;;;;;;;;;12.90;92.60;;;;;;5092492;28;19916;-50
2022/02/28 12:59:08;;;;;;;;;;;13.00;91.30;;;;;;5092204;28;19919;-47
2022/02/28 13:01:33;;;;;;;;;;;13.00;91.60;;;;;;5090890;28;19954;-47
2022/02/28 13:04:00;;;;;;;;;;;13.10;92.30;;;;;;5092326;28;19959;-51
2022/02/28 13:06:27;;;;;;;;;;;13.00;91.80;;;;;;5092449;28;19989;-49
2022/02/28 13:09:12;;;;;;;;;;;13.00;93.50;;;;;;5092334;28;19919;-48
2022/02/28 13:11:58;;;;;;;;;;;12.80;93.80;;;;;;5092271;28;20329;-50
2022/02/28 13:14:24;;;;;;;;;;;12.80;93.00;;;;;;5092135;28;19954;-49
2022/02/28 13:16:52;;;;;;;;;;;12.70;94.10;;;;;;5092183;28;19923;-56
2022/02/28 13:19:22;;;;;;;;;;;12.60;95.10;;;;;;5092306;28;19959;-48
2022/02/28 13:21:54;;;;;;;;;;;12.70;95.50;;;;;;5092483;28;19923;-47
2022/02/28 13:24:21;;;;;;;;;;;12.40;93.80;;;;;;5092066;28;20003;-48
2022/02/28 13:26:47;;;;;;;;;;;12.30;94.00;;;;;;5091733;28;19915;-50
2022/02/28 13:29:15;;;;;;;;;;;12.10;95.00;;;;;;5092004;28;19916;-51
2022/02/28 13:31:43;;;;;;;;;;;12.10;95.50;;;;;;5092041;28;19927;-49
2022/02/28 13:34:09;;;;;;;;;;;12.00;94.80;;;;;;5095091;28;19969;-48
2022/02/28 13:36:36;;;;;;;;;;;12.00;95.20;;;;;;5095777;28;19916;-46
2022/02/28 13:39:02;;;;;;;;;;;11.90;95.40;;;;;;5095786;28;20076;-49
2022/02/28 13:41:29;;;;;;;;;;;11.80;94.10;;;;;;5095425;28;19920;-46
2022/02/28 13:43:55;;;;;;;;;;;11.70;95.00;;;;;;5095756;28;19916;-47
2022/02/28 13:46:21;;;;;;;;;;;11.90;94.60;;;;;;5095788;28;19958;-47
2022/02/28 13:48:53;;;;;;;;;;;11.80;94.30;;;;;;5095619;28;20342;-47
2022/02/28 13:51:19;;;;;;;;;;;12.10;94.70;;;;;;5095477;28;19927;-46
2022/02/28 13:53:46;;;;;;;;;;;12.00;94.90;;;;;;5095345;28;19916;-47
2022/02/28 13:56:22;;;;;;;;;;;11.80;94.80;;;;;;5095798;28;20243;-46
2022/02/28 13:58:47;;;;;;;;;;;11.90;94.10;;;;;;5095309;28;19919;-48
2022/02/28 14:01:15;;;;;;;;;;;11.90;95.90;;;;;;5095455;28;19968;-46
2022/02/28 14:03:40;;;;;;;;;;;12.10;96.40;;;;;;5095312;28;19916;-47
2022/02/28 14:06:13;;;;;;;;;;;12.30;95.40;;;;;;5095168;28;19923;-48
2022/02/28 14:08:38;;;;;;;;;;;12.30;94.20;;;;;;5095220;28;19923;-49
2022/02/28 14:11:08;;;;;;;;;;;12.30;95.20;;;;;;5095149;28;19920;-47
2022/02/28 14:13:39;;;;;;;;;;;11.80;95.60;;;;;;5095209;28;20354;-48
2022/02/28 14:16:22;;;;;;;;;;;11.90;95.70;;;;;;5094915;28;19916;-59
2022/02/28 14:19:09;;;;;;;;;;;12.10;96.20;;;;;;5094804;28;20285;-59
2022/02/28 14:21:41;;;;;;;;;;;11.90;94.00;;;;;;5094782;28;19923;-59
2022/02/28 14:24:08;;;;;;;;;;;12.00;93.70;;;;;;5094863;28;19920;-60
2022/02/28 14:26:35;;;;;;;;;;;11.90;93.60;;;;;;5094822;28;19999;-59
2022/02/28 14:29:04;;;;;;;;;;;12.00;95.70;;;;;;5094755;28;19920;-60
2022/02/28 14:31:30;;;;;;;;;;;11.80;96.40;;;;;;5094610;28;19923;-59